sensor_id;sensor_type;location;lat;lon;timestamp;P1;durP1;ratioP1;P2;durP2;ratioP2
17482;SDS011;8858;52.308;20.994;2022-12-19T00:01:14;27.87;;;16.57;;
17482;SDS011;8858;52.308;20.994;2022-12-19T00:03:45;29.03;;;15.70;;
17482;SDS011;8858;52.308;20.994;2022-12-19T00:06:16;27.10;;;15.47;;
17482;SDS011;8858;52.308;20.994;2022-12-19T00:08:46;28.17;;;15.23;;
17482;SDS011;8858;52.308;20.994;2022-12-19T00:11:17;23.80;;;14.77;;
17482;SDS011;8858;52.308;20.994;2022-12-19T00:13:47;28.73;;;14.53;;
17482;SDS011;8858;52.308;20.994;2022-12-19T00:16:17;24.93;;;13.97;;
17482;SDS011;8858;52.308;20.994;2022-12-19T00:18:51;24.23;;;14.00;;
17482;SDS011;8858;52.308;20.994;2022-12-19T00:21:22;21.77;;;12.87;;
17482;SDS011;8858;52.308;20.994;2022-12-19T00:23:51;24.33;;;13.13;;
17482;SDS011;8858;52.308;20.994;2022-12-19T00:26:24;21.17;;;12.50;;
17482;SDS011;8858;52.308;20.994;2022-12-19T00:28:55;22.97;;;13.10;;
17482;SDS011;8858;52.308;20.994;2022-12-19T00:31:25;21.90;;;12.90;;
17482;SDS011;8858;52.308;20.994;2022-12-19T00:33:56;23.63;;;13.50;;
17482;SDS011;8858;52.308;20.994;2022-12-19T00:36:48;20.63;;;12.80;;
17482;SDS011;8858;52.308;20.994;2022-12-19T00:39:20;23.50;;;12.60;;
17482;SDS011;8858;52.308;20.994;2022-12-19T00:41:48;18.87;;;11.67;;
17482;SDS011;8858;52.308;20.994;2022-12-19T00:44:17;20.27;;;11.70;;
17482;SDS011;8858;52.308;20.994;2022-12-19T00:46:45;21.57;;;12.20;;
17482;SDS011;8858;52.308;20.994;2022-12-19T00:49:19;20.63;;;11.47;;
17482;SDS011;8858;52.308;20.994;2022-12-19T00:51:51;23.23;;;12.53;;
17482;SDS011;8858;52.308;20.994;2022-12-19T00:54:22;21.17;;;12.13;;
17482;SDS011;8858;52.308;20.994;2022-12-19T00:56:51;19.53;;;12.00;;
17482;SDS011;8858;52.308;20.994;2022-12-19T00:59:22;22.27;;;12.33;;
17482;SDS011;8858;52.308;20.994;2022-12-19T01:01:54;19.60;;;11.50;;
17482;SDS011;8858;52.308;20.994;2022-12-19T01:04:25;23.20;;;11.97;;
17482;SDS011;8858;52.308;20.994;2022-12-19T01:07:00;20.73;;;12.33;;
17482;SDS011;8858;52.308;20.994;2022-12-19T01:09:31;24.10;;;12.93;;
17482;SDS011;8858;52.308;20.994;2022-12-19T01:12:01;21.73;;;13.63;;
17482;SDS011;8858;52.308;20.994;2022-12-19T01:14:51;22.33;;;11.77;;
17482;SDS011;8858;52.308;20.994;2022-12-19T01:17:30;20.77;;;11.70;;
17482;SDS011;8858;52.308;20.994;2022-12-19T01:20:11;21.47;;;11.80;;
17482;SDS011;8858;52.308;20.994;2022-12-19T01:22:42;21.87;;;11.97;;
17482;SDS011;8858;52.308;20.994;2022-12-19T01:25:12;20.37;;;12.27;;
17482;SDS011;8858;52.308;20.994;2022-12-19T01:27:40;18.77;;;11.00;;
17482;SDS011;8858;52.308;20.994;2022-12-19T01:30:11;21.80;;;11.93;;
17482;SDS011;8858;52.308;20.994;2022-12-19T01:32:42;23.17;;;12.03;;
17482;SDS011;8858;52.308;20.994;2022-12-19T01:35:11;21.40;;;11.83;;
17482;SDS011;8858;52.308;20.994;2022-12-19T01:37:47;20.83;;;12.13;;
17482;SDS011;8858;52.308;20.994;2022-12-19T01:40:16;21.40;;;12.57;;
17482;SDS011;8858;52.308;20.994;2022-12-19T01:42:46;20.50;;;12.03;;
17482;SDS011;8858;52.308;20.994;2022-12-19T01:45:22;23.93;;;13.40;;
17482;SDS011;8858;52.308;20.994;2022-12-19T01:48:02;22.60;;;11.97;;
17482;SDS011;8858;52.308;20.994;2022-12-19T01:50:46;21.73;;;11.80;;
17482;SDS011;8858;52.308;20.994;2022-12-19T01:53:29;19.57;;;12.03;;
17482;SDS011;8858;52.308;20.994;2022-12-19T01:56:02;23.10;;;12.13;;
17482;SDS011;8858;52.308;20.994;2022-12-19T01:58:37;22.37;;;12.63;;
17482;SDS011;8858;52.308;20.994;2022-12-19T02:01:12;20.37;;;12.07;;
17482;SDS011;8858;52.308;20.994;2022-12-19T02:03:44;21.00;;;11.80;;
17482;SDS011;8858;52.308;20.994;2022-12-19T02:06:16;23.53;;;13.23;;
17482;SDS011;8858;52.308;20.994;2022-12-19T02:08:47;22.37;;;12.93;;
17482;SDS011;8858;52.308;20.994;2022-12-19T02:11:17;22.63;;;12.77;;
17482;SDS011;8858;52.308;20.994;2022-12-19T02:13:47;24.90;;;12.77;;
17482;SDS011;8858;52.308;20.994;2022-12-19T02:16:18;27.77;;;13.93;;
17482;SDS011;8858;52.308;20.994;2022-12-19T02:19:00;23.60;;;12.33;;
17482;SDS011;8858;52.308;20.994;2022-12-19T02:21:48;23.00;;;13.10;;
17482;SDS011;8858;52.308;20.994;2022-12-19T02:30:55;28.07;;;14.50;;
17482;SDS011;8858;52.308;20.994;2022-12-19T02:33:44;27.63;;;14.97;;
17482;SDS011;8858;52.308;20.994;2022-12-19T02:36:24;28.20;;;14.93;;
17482;SDS011;8858;52.308;20.994;2022-12-19T02:39:06;28.63;;;15.00;;
17482;SDS011;8858;52.308;20.994;2022-12-19T02:41:43;27.70;;;14.63;;
17482;SDS011;8858;52.308;20.994;2022-12-19T02:44:20;24.60;;;13.90;;
17482;SDS011;8858;52.308;20.994;2022-12-19T02:46:53;27.87;;;14.37;;
17482;SDS011;8858;52.308;20.994;2022-12-19T02:49:24;25.93;;;14.30;;
17482;SDS011;8858;52.308;20.994;2022-12-19T02:52:07;28.53;;;14.80;;
17482;SDS011;8858;52.308;20.994;2022-12-19T02:54:37;27.47;;;13.77;;
17482;SDS011;8858;52.308;20.994;2022-12-19T02:57:14;27.97;;;14.33;;
17482;SDS011;8858;52.308;20.994;2022-12-19T02:59:55;25.40;;;14.03;;
17482;SDS011;8858;52.308;20.994;2022-12-19T03:02:35;27.53;;;13.87;;
17482;SDS011;8858;52.308;20.994;2022-12-19T03:05:30;29.87;;;15.07;;
17482;SDS011;8858;52.308;20.994;2022-12-19T03:08:05;26.50;;;14.47;;
17482;SDS011;8858;52.308;20.994;2022-12-19T03:10:40;25.97;;;14.30;;
17482;SDS011;8858;52.308;20.994;2022-12-19T03:13:13;25.23;;;14.50;;
17482;SDS011;8858;52.308;20.994;2022-12-19T03:15:48;29.07;;;15.23;;
17482;SDS011;8858;52.308;20.994;2022-12-19T03:18:20;26.80;;;14.63;;
17482;SDS011;8858;52.308;20.994;2022-12-19T03:20:50;26.50;;;15.00;;
17482;SDS011;8858;52.308;20.994;2022-12-19T03:23:23;27.37;;;15.10;;
17482;SDS011;8858;52.308;20.994;2022-12-19T03:25:54;24.13;;;13.43;;
17482;SDS011;8858;52.308;20.994;2022-12-19T03:28:29;25.57;;;14.40;;
17482;SDS011;8858;52.308;20.994;2022-12-19T03:31:03;27.00;;;14.43;;
17482;SDS011;8858;52.308;20.994;2022-12-19T03:33:35;27.73;;;14.80;;
17482;SDS011;8858;52.308;20.994;2022-12-19T03:36:10;29.40;;;15.50;;
17482;SDS011;8858;52.308;20.994;2022-12-19T03:38:43;27.40;;;14.83;;
17482;SDS011;8858;52.308;20.994;2022-12-19T03:41:15;26.43;;;15.20;;
17482;SDS011;8858;52.308;20.994;2022-12-19T03:44:08;27.03;;;15.33;;
17482;SDS011;8858;52.308;20.994;2022-12-19T03:46:40;28.50;;;15.20;;
17482;SDS011;8858;52.308;20.994;2022-12-19T03:49:14;27.97;;;16.07;;
17482;SDS011;8858;52.308;20.994;2022-12-19T03:51:45;28.93;;;15.60;;
17482;SDS011;8858;52.308;20.994;2022-12-19T03:54:27;27.53;;;13.93;;
17482;SDS011;8858;52.308;20.994;2022-12-19T03:57:03;33.70;;;17.10;;
17482;SDS011;8858;52.308;20.994;2022-12-19T03:59:38;28.50;;;15.83;;
17482;SDS011;8858;52.308;20.994;2022-12-19T04:02:11;27.00;;;15.07;;
17482;SDS011;8858;52.308;20.994;2022-12-19T04:04:47;31.60;;;16.10;;
17482;SDS011;8858;52.308;20.994;2022-12-19T04:07:19;29.83;;;15.60;;
17482;SDS011;8858;52.308;20.994;2022-12-19T04:09:52;32.27;;;15.93;;
17482;SDS011;8858;52.308;20.994;2022-12-19T04:12:23;26.10;;;14.03;;
17482;SDS011;8858;52.308;20.994;2022-12-19T04:14:55;28.63;;;14.87;;
17482;SDS011;8858;52.308;20.994;2022-12-19T04:17:25;28.40;;;14.83;;
17482;SDS011;8858;52.308;20.994;2022-12-19T04:20:02;29.53;;;15.43;;
17482;SDS011;8858;52.308;20.994;2022-12-19T04:22:34;33.00;;;15.23;;
17482;SDS011;8858;52.308;20.994;2022-12-19T04:25:05;31.10;;;15.63;;
17482;SDS011;8858;52.308;20.994;2022-12-19T04:27:39;33.47;;;16.27;;
17482;SDS011;8858;52.308;20.994;2022-12-19T04:30:13;31.60;;;15.73;;
17482;SDS011;8858;52.308;20.994;2022-12-19T04:32:47;32.17;;;15.80;;
17482;SDS011;8858;52.308;20.994;2022-12-19T04:35:18;31.00;;;16.07;;
17482;SDS011;8858;52.308;20.994;2022-12-19T04:37:46;28.80;;;15.27;;
17482;SDS011;8858;52.308;20.994;2022-12-19T04:40:16;30.67;;;15.43;;
17482;SDS011;8858;52.308;20.994;2022-12-19T04:42:44;27.50;;;14.23;;
17482;SDS011;8858;52.308;20.994;2022-12-19T04:45:16;31.00;;;15.73;;
17482;SDS011;8858;52.308;20.994;2022-12-19T04:47:45;27.30;;;14.73;;
17482;SDS011;8858;52.308;20.994;2022-12-19T04:50:13;29.37;;;15.30;;
17482;SDS011;8858;52.308;20.994;2022-12-19T04:52:44;38.20;;;15.43;;
17482;SDS011;8858;52.308;20.994;2022-12-19T04:55:12;28.93;;;15.33;;
17482;SDS011;8858;52.308;20.994;2022-12-19T04:57:40;32.50;;;15.20;;
17482;SDS011;8858;52.308;20.994;2022-12-19T05:00:09;30.30;;;15.57;;
17482;SDS011;8858;52.308;20.994;2022-12-19T05:02:40;29.00;;;15.07;;
17482;SDS011;8858;52.308;20.994;2022-12-19T05:05:09;25.97;;;14.93;;
17482;SDS011;8858;52.308;20.994;2022-12-19T05:07:38;31.67;;;14.90;;
17482;SDS011;8858;52.308;20.994;2022-12-19T05:10:11;33.53;;;16.63;;
17482;SDS011;8858;52.308;20.994;2022-12-19T05:12:40;33.27;;;16.17;;
17482;SDS011;8858;52.308;20.994;2022-12-19T05:15:09;25.00;;;13.80;;
17482;SDS011;8858;52.308;20.994;2022-12-19T05:17:38;28.80;;;14.73;;
17482;SDS011;8858;52.308;20.994;2022-12-19T05:20:07;26.63;;;14.40;;
17482;SDS011;8858;52.308;20.994;2022-12-19T05:22:39;30.33;;;14.87;;
17482;SDS011;8858;52.308;20.994;2022-12-19T05:25:08;30.50;;;15.43;;
17482;SDS011;8858;52.308;20.994;2022-12-19T05:27:41;29.47;;;14.90;;
17482;SDS011;8858;52.308;20.994;2022-12-19T05:30:10;32.50;;;16.27;;
17482;SDS011;8858;52.308;20.994;2022-12-19T05:32:39;30.07;;;14.80;;
17482;SDS011;8858;52.308;20.994;2022-12-19T05:35:08;29.60;;;14.57;;
17482;SDS011;8858;52.308;20.994;2022-12-19T05:37:36;31.77;;;15.80;;
17482;SDS011;8858;52.308;20.994;2022-12-19T05:40:06;31.87;;;15.67;;
17482;SDS011;8858;52.308;20.994;2022-12-19T05:42:35;30.10;;;15.50;;
17482;SDS011;8858;52.308;20.994;2022-12-19T05:45:06;30.93;;;15.00;;
17482;SDS011;8858;52.308;20.994;2022-12-19T05:47:36;35.07;;;16.57;;
17482;SDS011;8858;52.308;20.994;2022-12-19T05:50:05;31.73;;;15.63;;
17482;SDS011;8858;52.308;20.994;2022-12-19T05:52:34;27.93;;;15.17;;
17482;SDS011;8858;52.308;20.994;2022-12-19T05:55:03;28.83;;;15.00;;
17482;SDS011;8858;52.308;20.994;2022-12-19T05:57:32;33.27;;;16.00;;
17482;SDS011;8858;52.308;20.994;2022-12-19T06:00:03;32.07;;;16.30;;
17482;SDS011;8858;52.308;20.994;2022-12-19T06:02:37;34.50;;;15.60;;
17482;SDS011;8858;52.308;20.994;2022-12-19T06:05:07;29.57;;;15.20;;
17482;SDS011;8858;52.308;20.994;2022-12-19T06:07:36;31.73;;;15.63;;
17482;SDS011;8858;52.308;20.994;2022-12-19T06:10:04;33.23;;;15.97;;
17482;SDS011;8858;52.308;20.994;2022-12-19T06:12:33;31.10;;;15.03;;
17482;SDS011;8858;52.308;20.994;2022-12-19T06:15:01;30.73;;;16.03;;
17482;SDS011;8858;52.308;20.994;2022-12-19T06:17:31;29.07;;;14.83;;
17482;SDS011;8858;52.308;20.994;2022-12-19T06:19:59;33.90;;;16.17;;
17482;SDS011;8858;52.308;20.994;2022-12-19T06:22:27;31.20;;;15.90;;
17482;SDS011;8858;52.308;20.994;2022-12-19T06:24:59;28.53;;;15.27;;
17482;SDS011;8858;52.308;20.994;2022-12-19T06:27:27;31.87;;;15.37;;
17482;SDS011;8858;52.308;20.994;2022-12-19T06:29:57;30.60;;;15.67;;
17482;SDS011;8858;52.308;20.994;2022-12-19T06:32:26;67.73;;;30.90;;
17482;SDS011;8858;52.308;20.994;2022-12-19T06:35:05;34.10;;;17.27;;
17482;SDS011;8858;52.308;20.994;2022-12-19T06:37:34;27.47;;;15.10;;
17482;SDS011;8858;52.308;20.994;2022-12-19T06:40:05;31.23;;;15.57;;
17482;SDS011;8858;52.308;20.994;2022-12-19T06:42:59;28.43;;;15.63;;
17482;SDS011;8858;52.308;20.994;2022-12-19T06:45:26;34.47;;;16.53;;
17482;SDS011;8858;52.308;20.994;2022-12-19T06:47:55;29.33;;;15.83;;
17482;SDS011;8858;52.308;20.994;2022-12-19T06:50:29;31.00;;;15.90;;
17482;SDS011;8858;52.308;20.994;2022-12-19T06:52:58;31.70;;;15.97;;
17482;SDS011;8858;52.308;20.994;2022-12-19T06:55:27;29.67;;;16.03;;
17482;SDS011;8858;52.308;20.994;2022-12-19T06:58:00;34.53;;;16.00;;
17482;SDS011;8858;52.308;20.994;2022-12-19T07:00:28;36.43;;;16.83;;
17482;SDS011;8858;52.308;20.994;2022-12-19T07:02:58;30.93;;;16.17;;
17482;SDS011;8858;52.308;20.994;2022-12-19T07:05:27;36.53;;;17.20;;
17482;SDS011;8858;52.308;20.994;2022-12-19T07:07:57;30.50;;;16.17;;
17482;SDS011;8858;52.308;20.994;2022-12-19T07:10:28;32.30;;;16.93;;
17482;SDS011;8858;52.308;20.994;2022-12-19T07:12:57;35.13;;;17.50;;
17482;SDS011;8858;52.308;20.994;2022-12-19T07:15:27;34.77;;;17.13;;
17482;SDS011;8858;52.308;20.994;2022-12-19T07:17:58;35.47;;;17.77;;
17482;SDS011;8858;52.308;20.994;2022-12-19T07:20:27;31.63;;;16.20;;
17482;SDS011;8858;52.308;20.994;2022-12-19T07:22:59;36.83;;;16.87;;
17482;SDS011;8858;52.308;20.994;2022-12-19T07:25:29;32.80;;;16.80;;
17482;SDS011;8858;52.308;20.994;2022-12-19T07:27:58;32.43;;;16.23;;
17482;SDS011;8858;52.308;20.994;2022-12-19T07:30:27;33.73;;;16.23;;
17482;SDS011;8858;52.308;20.994;2022-12-19T07:32:56;35.73;;;17.70;;
17482;SDS011;8858;52.308;20.994;2022-12-19T07:35:27;31.77;;;16.70;;
17482;SDS011;8858;52.308;20.994;2022-12-19T07:38:01;29.73;;;15.57;;
17482;SDS011;8858;52.308;20.994;2022-12-19T07:40:34;33.90;;;17.33;;
17482;SDS011;8858;52.308;20.994;2022-12-19T07:43:04;35.67;;;18.00;;
17482;SDS011;8858;52.308;20.994;2022-12-19T07:45:35;36.70;;;16.97;;
17482;SDS011;8858;52.308;20.994;2022-12-19T07:48:05;34.70;;;16.50;;
17482;SDS011;8858;52.308;20.994;2022-12-19T07:50:37;36.23;;;18.43;;
17482;SDS011;8858;52.308;20.994;2022-12-19T07:53:07;38.30;;;18.37;;
17482;SDS011;8858;52.308;20.994;2022-12-19T07:55:35;34.13;;;16.67;;
17482;SDS011;8858;52.308;20.994;2022-12-19T07:58:03;34.30;;;17.47;;
17482;SDS011;8858;52.308;20.994;2022-12-19T08:00:32;37.57;;;18.60;;
17482;SDS011;8858;52.308;20.994;2022-12-19T08:03:00;36.13;;;17.97;;
17482;SDS011;8858;52.308;20.994;2022-12-19T08:05:33;35.90;;;19.17;;
17482;SDS011;8858;52.308;20.994;2022-12-19T08:08:02;34.80;;;17.87;;
17482;SDS011;8858;52.308;20.994;2022-12-19T08:10:33;34.70;;;17.73;;
17482;SDS011;8858;52.308;20.994;2022-12-19T08:13:01;36.40;;;18.77;;
17482;SDS011;8858;52.308;20.994;2022-12-19T08:15:33;37.17;;;18.37;;
17482;SDS011;8858;52.308;20.994;2022-12-19T08:18:02;37.03;;;20.40;;
17482;SDS011;8858;52.308;20.994;2022-12-19T08:20:30;35.10;;;18.10;;
17482;SDS011;8858;52.308;20.994;2022-12-19T08:22:59;33.83;;;17.93;;
17482;SDS011;8858;52.308;20.994;2022-12-19T08:25:27;32.50;;;17.20;;
17482;SDS011;8858;52.308;20.994;2022-12-19T08:27:58;31.33;;;15.93;;
17482;SDS011;8858;52.308;20.994;2022-12-19T08:30:27;33.33;;;16.37;;
17482;SDS011;8858;52.308;20.994;2022-12-19T08:32:55;34.90;;;17.40;;
17482;SDS011;8858;52.308;20.994;2022-12-19T08:35:23;32.70;;;16.60;;
17482;SDS011;8858;52.308;20.994;2022-12-19T08:37:52;33.10;;;17.50;;
17482;SDS011;8858;52.308;20.994;2022-12-19T08:40:20;34.33;;;16.93;;
17482;SDS011;8858;52.308;20.994;2022-12-19T08:42:49;36.97;;;18.07;;
17482;SDS011;8858;52.308;20.994;2022-12-19T08:45:18;32.30;;;18.07;;
17482;SDS011;8858;52.308;20.994;2022-12-19T08:47:49;33.97;;;16.80;;
17482;SDS011;8858;52.308;20.994;2022-12-19T08:50:17;34.43;;;17.23;;
17482;SDS011;8858;52.308;20.994;2022-12-19T08:52:45;34.20;;;16.77;;
17482;SDS011;8858;52.308;20.994;2022-12-19T08:55:13;33.37;;;16.63;;
17482;SDS011;8858;52.308;20.994;2022-12-19T08:57:41;36.73;;;17.43;;
17482;SDS011;8858;52.308;20.994;2022-12-19T09:00:10;31.73;;;17.17;;
17482;SDS011;8858;52.308;20.994;2022-12-19T09:02:44;40.70;;;19.57;;
17482;SDS011;8858;52.308;20.994;2022-12-19T09:05:12;30.10;;;17.17;;
17482;SDS011;8858;52.308;20.994;2022-12-19T09:08:01;33.80;;;17.83;;
17482;SDS011;8858;52.308;20.994;2022-12-19T09:10:30;33.53;;;17.30;;
17482;SDS011;8858;52.308;20.994;2022-12-19T09:12:58;38.80;;;18.57;;
17482;SDS011;8858;52.308;20.994;2022-12-19T09:15:27;30.97;;;17.67;;
17482;SDS011;8858;52.308;20.994;2022-12-19T09:17:58;32.93;;;16.77;;
17482;SDS011;8858;52.308;20.994;2022-12-19T09:20:26;28.03;;;15.37;;
17482;SDS011;8858;52.308;20.994;2022-12-19T09:22:54;34.13;;;17.90;;
17482;SDS011;8858;52.308;20.994;2022-12-19T09:25:23;31.33;;;16.57;;
17482;SDS011;8858;52.308;20.994;2022-12-19T09:27:51;32.53;;;17.23;;
17482;SDS011;8858;52.308;20.994;2022-12-19T09:30:43;36.47;;;18.10;;
17482;SDS011;8858;52.308;20.994;2022-12-19T09:33:13;31.20;;;17.53;;
17482;SDS011;8858;52.308;20.994;2022-12-19T09:35:47;33.20;;;17.23;;
17482;SDS011;8858;52.308;20.994;2022-12-19T09:38:17;33.37;;;17.47;;
17482;SDS011;8858;52.308;20.994;2022-12-19T09:40:50;35.77;;;18.60;;
17482;SDS011;8858;52.308;20.994;2022-12-19T09:43:32;34.70;;;17.93;;
17482;SDS011;8858;52.308;20.994;2022-12-19T09:46:14;36.83;;;18.10;;
17482;SDS011;8858;52.308;20.994;2022-12-19T09:48:46;35.27;;;17.53;;
17482;SDS011;8858;52.308;20.994;2022-12-19T09:51:24;38.37;;;18.80;;
17482;SDS011;8858;52.308;20.994;2022-12-19T09:54:04;33.70;;;18.60;;
17482;SDS011;8858;52.308;20.994;2022-12-19T09:56:38;37.60;;;18.83;;
17482;SDS011;8858;52.308;20.994;2022-12-19T09:59:12;35.17;;;19.80;;
17482;SDS011;8858;52.308;20.994;2022-12-19T10:01:54;34.80;;;19.60;;
17482;SDS011;8858;52.308;20.994;2022-12-19T10:04:28;43.07;;;19.70;;
17482;SDS011;8858;52.308;20.994;2022-12-19T10:07:06;31.27;;;17.50;;
17482;SDS011;8858;52.308;20.994;2022-12-19T10:09:56;34.53;;;18.20;;
17482;SDS011;8858;52.308;20.994;2022-12-19T10:12:49;31.73;;;16.60;;
17482;SDS011;8858;52.308;20.994;2022-12-19T10:15:41;29.57;;;16.27;;
17482;SDS011;8858;52.308;20.994;2022-12-19T10:18:30;32.17;;;17.30;;
17482;SDS011;8858;52.308;20.994;2022-12-19T10:21:06;34.17;;;16.47;;
17482;SDS011;8858;52.308;20.994;2022-12-19T10:23:46;33.53;;;17.70;;
17482;SDS011;8858;52.308;20.994;2022-12-19T10:26:28;34.27;;;17.10;;
17482;SDS011;8858;52.308;20.994;2022-12-19T10:29:07;31.27;;;16.13;;
17482;SDS011;8858;52.308;20.994;2022-12-19T10:32:01;32.13;;;17.23;;
17482;SDS011;8858;52.308;20.994;2022-12-19T10:34:35;33.00;;;16.13;;
17482;SDS011;8858;52.308;20.994;2022-12-19T10:37:11;28.57;;;15.30;;
17482;SDS011;8858;52.308;20.994;2022-12-19T10:40:03;27.63;;;15.63;;
17482;SDS011;8858;52.308;20.994;2022-12-19T10:42:58;29.40;;;16.27;;
17482;SDS011;8858;52.308;20.994;2022-12-19T10:45:38;26.93;;;14.57;;
17482;SDS011;8858;52.308;20.994;2022-12-19T10:48:14;26.53;;;14.37;;
17482;SDS011;8858;52.308;20.994;2022-12-19T10:50:49;25.10;;;13.23;;
17482;SDS011;8858;52.308;20.994;2022-12-19T10:53:25;24.47;;;13.73;;
17482;SDS011;8858;52.308;20.994;2022-12-19T10:55:58;26.20;;;14.37;;
17482;SDS011;8858;52.308;20.994;2022-12-19T10:58:32;25.17;;;14.10;;
17482;SDS011;8858;52.308;20.994;2022-12-19T11:01:08;22.47;;;14.40;;
17482;SDS011;8858;52.308;20.994;2022-12-19T11:03:44;26.70;;;14.57;;
17482;SDS011;8858;52.308;20.994;2022-12-19T11:11:59;26.47;;;13.93;;
17482;SDS011;8858;52.308;20.994;2022-12-19T11:15:02;25.63;;;15.00;;
17482;SDS011;8858;52.308;20.994;2022-12-19T11:18:05;29.17;;;15.00;;
17482;SDS011;8858;52.308;20.994;2022-12-19T11:20:58;27.73;;;14.70;;
17482;SDS011;8858;52.308;20.994;2022-12-19T11:23:49;29.13;;;14.30;;
17482;SDS011;8858;52.308;20.994;2022-12-19T11:26:45;28.13;;;14.27;;
17482;SDS011;8858;52.308;20.994;2022-12-19T11:29:42;31.47;;;14.27;;
17482;SDS011;8858;52.308;20.994;2022-12-19T11:32:33;30.10;;;14.87;;
17482;SDS011;8858;52.308;20.994;2022-12-19T11:35:14;27.03;;;15.40;;
17482;SDS011;8858;52.308;20.994;2022-12-19T11:37:50;23.30;;;13.93;;
17482;SDS011;8858;52.308;20.994;2022-12-19T11:40:27;25.70;;;14.27;;
17482;SDS011;8858;52.308;20.994;2022-12-19T11:43:02;25.80;;;14.40;;
17482;SDS011;8858;52.308;20.994;2022-12-19T11:45:57;26.93;;;15.20;;
17482;SDS011;8858;52.308;20.994;2022-12-19T11:48:34;24.33;;;13.63;;
17482;SDS011;8858;52.308;20.994;2022-12-19T11:51:13;24.93;;;15.13;;
17482;SDS011;8858;52.308;20.994;2022-12-19T11:53:48;27.27;;;15.00;;
17482;SDS011;8858;52.308;20.994;2022-12-19T11:56:24;27.17;;;14.87;;
17482;SDS011;8858;52.308;20.994;2022-12-19T11:58:56;23.97;;;15.20;;
17482;SDS011;8858;52.308;20.994;2022-12-19T12:01:34;26.77;;;15.10;;
17482;SDS011;8858;52.308;20.994;2022-12-19T12:07:10;26.43;;;14.97;;
17482;SDS011;8858;52.308;20.994;2022-12-19T12:10:00;29.23;;;15.27;;
17482;SDS011;8858;52.308;20.994;2022-12-19T12:12:59;28.17;;;15.20;;
17482;SDS011;8858;52.308;20.994;2022-12-19T12:16:00;26.00;;;15.00;;
17482;SDS011;8858;52.308;20.994;2022-12-19T12:19:00;23.97;;;15.30;;
17482;SDS011;8858;52.308;20.994;2022-12-19T12:22:00;29.93;;;16.07;;
17482;SDS011;8858;52.308;20.994;2022-12-19T12:24:58;23.10;;;14.27;;
17482;SDS011;8858;52.308;20.994;2022-12-19T12:27:57;32.67;;;15.83;;
17482;SDS011;8858;52.308;20.994;2022-12-19T12:30:56;25.83;;;15.03;;
17482;SDS011;8858;52.308;20.994;2022-12-19T12:33:59;28.23;;;15.77;;
17482;SDS011;8858;52.308;20.994;2022-12-19T12:37:04;25.33;;;14.97;;
17482;SDS011;8858;52.308;20.994;2022-12-19T12:43:04;29.17;;;15.57;;
17482;SDS011;8858;52.308;20.994;2022-12-19T12:45:44;25.40;;;15.33;;
17482;SDS011;8858;52.308;20.994;2022-12-19T12:48:16;28.00;;;15.53;;
17482;SDS011;8858;52.308;20.994;2022-12-19T12:50:53;28.73;;;15.20;;
17482;SDS011;8858;52.308;20.994;2022-12-19T12:53:24;31.90;;;16.33;;
17482;SDS011;8858;52.308;20.994;2022-12-19T12:55:59;27.20;;;15.17;;
17482;SDS011;8858;52.308;20.994;2022-12-19T13:01:49;27.93;;;15.10;;
17482;SDS011;8858;52.308;20.994;2022-12-19T13:04:31;29.03;;;16.13;;
17482;SDS011;8858;52.308;20.994;2022-12-19T13:07:03;28.30;;;15.53;;
17482;SDS011;8858;52.308;20.994;2022-12-19T13:09:48;29.17;;;15.47;;
17482;SDS011;8858;52.308;20.994;2022-12-19T13:12:23;30.17;;;15.20;;
17482;SDS011;8858;52.308;20.994;2022-12-19T13:15:27;25.37;;;13.93;;
17482;SDS011;8858;52.308;20.994;2022-12-19T13:21:06;32.07;;;16.57;;
17482;SDS011;8858;52.308;20.994;2022-12-19T13:26:44;25.33;;;14.73;;
17482;SDS011;8858;52.308;20.994;2022-12-19T13:29:33;27.30;;;15.17;;
17482;SDS011;8858;52.308;20.994;2022-12-19T13:32:22;28.57;;;14.67;;
17482;SDS011;8858;52.308;20.994;2022-12-19T13:34:51;29.27;;;15.73;;
17482;SDS011;8858;52.308;20.994;2022-12-19T13:37:44;29.33;;;16.23;;
17482;SDS011;8858;52.308;20.994;2022-12-19T13:40:49;29.77;;;15.50;;
17482;SDS011;8858;52.308;20.994;2022-12-19T13:43:25;29.93;;;15.60;;
17482;SDS011;8858;52.308;20.994;2022-12-19T13:46:20;33.00;;;16.60;;
17482;SDS011;8858;52.308;20.994;2022-12-19T13:48:56;30.67;;;15.13;;
17482;SDS011;8858;52.308;20.994;2022-12-19T13:51:39;30.53;;;15.10;;
17482;SDS011;8858;52.308;20.994;2022-12-19T13:54:18;27.97;;;15.90;;
17482;SDS011;8858;52.308;20.994;2022-12-19T13:56:50;28.33;;;15.40;;
17482;SDS011;8858;52.308;20.994;2022-12-19T13:59:19;29.67;;;14.87;;
17482;SDS011;8858;52.308;20.994;2022-12-19T14:01:51;32.27;;;16.57;;
17482;SDS011;8858;52.308;20.994;2022-12-19T14:04:24;29.23;;;16.07;;
17482;SDS011;8858;52.308;20.994;2022-12-19T14:06:57;29.20;;;15.90;;
17482;SDS011;8858;52.308;20.994;2022-12-19T14:09:29;28.90;;;15.20;;
17482;SDS011;8858;52.308;20.994;2022-12-19T14:12:21;28.40;;;15.60;;
17482;SDS011;8858;52.308;20.994;2022-12-19T14:15:38;32.53;;;17.33;;
17482;SDS011;8858;52.308;20.994;2022-12-19T14:18:18;32.53;;;16.87;;
17482;SDS011;8858;52.308;20.994;2022-12-19T14:21:12;32.13;;;16.10;;
17482;SDS011;8858;52.308;20.994;2022-12-19T14:24:11;30.20;;;15.60;;
17482;SDS011;8858;52.308;20.994;2022-12-19T14:26:44;31.87;;;16.37;;
17482;SDS011;8858;52.308;20.994;2022-12-19T14:29:36;31.80;;;16.50;;
17482;SDS011;8858;52.308;20.994;2022-12-19T14:32:30;27.87;;;15.67;;
17482;SDS011;8858;52.308;20.994;2022-12-19T14:35:19;35.13;;;16.40;;
17482;SDS011;8858;52.308;20.994;2022-12-19T14:38:14;34.87;;;16.20;;
17482;SDS011;8858;52.308;20.994;2022-12-19T14:41:04;31.23;;;15.63;;
17482;SDS011;8858;52.308;20.994;2022-12-19T14:43:55;29.33;;;16.20;;
17482;SDS011;8858;52.308;20.994;2022-12-19T14:46:42;30.77;;;15.73;;
17482;SDS011;8858;52.308;20.994;2022-12-19T14:49:31;33.73;;;16.93;;
17482;SDS011;8858;52.308;20.994;2022-12-19T14:55:39;33.03;;;16.57;;
17482;SDS011;8858;52.308;20.994;2022-12-19T14:58:32;32.90;;;17.03;;
17482;SDS011;8858;52.308;20.994;2022-12-19T15:01:22;33.27;;;17.27;;
17482;SDS011;8858;52.308;20.994;2022-12-19T15:03:54;32.77;;;17.10;;
17482;SDS011;8858;52.308;20.994;2022-12-19T15:06:44;32.47;;;16.23;;
17482;SDS011;8858;52.308;20.994;2022-12-19T15:09:34;32.30;;;16.17;;
17482;SDS011;8858;52.308;20.994;2022-12-19T15:12:29;32.20;;;16.97;;
17482;SDS011;8858;52.308;20.994;2022-12-19T15:15:37;37.50;;;17.93;;
17482;SDS011;8858;52.308;20.994;2022-12-19T15:18:18;33.67;;;17.60;;
17482;SDS011;8858;52.308;20.994;2022-12-19T15:20:49;36.50;;;17.93;;
17482;SDS011;8858;52.308;20.994;2022-12-19T15:23:18;33.13;;;18.47;;
17482;SDS011;8858;52.308;20.994;2022-12-19T15:25:48;33.67;;;17.10;;
17482;SDS011;8858;52.308;20.994;2022-12-19T15:28:37;35.63;;;18.07;;
17482;SDS011;8858;52.308;20.994;2022-12-19T15:31:12;32.97;;;17.57;;
17482;SDS011;8858;52.308;20.994;2022-12-19T15:33:51;33.47;;;17.00;;
17482;SDS011;8858;52.308;20.994;2022-12-19T15:36:40;31.77;;;17.20;;
17482;SDS011;8858;52.308;20.994;2022-12-19T15:39:08;34.33;;;17.43;;
17482;SDS011;8858;52.308;20.994;2022-12-19T15:41:39;35.87;;;18.23;;
17482;SDS011;8858;52.308;20.994;2022-12-19T15:44:09;37.63;;;18.20;;